Time;durP1;ratioP1;P1;durP2;ratioP2;P2;SDS_P1;SDS_P2;PMS_P1;PMS_P2;Temp;Humidity;BMP_temperature;BMP_pressure;BME280_temperature;BME280_humidity;BME280_pressure;Samples;Min_cycle;Max_cycle;Signal;HPM_P1;HPM_P2
2023/04/15 00:01:17;;;;;;;;;;;;;;;12.40;54.64;99612.84;4948682;28;19954;-76
2023/04/15 00:04:09;;;;;;;;;;;;;;;12.43;55.11;99612.16;4941844;29;19918;-76
2023/04/15 00:07:01;;;;;;;;;;;;;;;12.50;54.83;99608.78;4942871;29;19915;-76
2023/04/15 00:09:53;;;;;;;;;;;;;;;12.35;55.31;99606.84;4933124;29;20298;-77
2023/04/15 00:12:45;;;;;;;;;;;;;;;12.40;55.70;99607.38;4947176;28;19914;-76
2023/04/15 00:15:37;;;;;;;;;;;;;;;12.36;55.92;99608.44;4956485;28;19915;-76
2023/04/15 00:18:28;;;;;;;;;;;;;;;12.24;56.28;99603.13;4956114;29;19922;-76
2023/04/15 00:21:21;;;;;;;;;;;;;;;12.30;55.78;99601.69;4955924;28;19914;-76
2023/04/15 00:24:12;;;;;;;;;;;;;;;12.18;55.47;99593.63;4955138;28;20370;-76
2023/04/15 00:27:04;;;;;;;;;;;;;;;12.13;55.71;99594.69;4956629;28;19914;-76
2023/04/15 00:29:56;;;;;;;;;;;;;;;12.10;55.50;99600.81;4955606;29;19933;-76
2023/04/15 00:32:48;;;;;;;;;;;;;;;12.02;56.09;99601.78;4955950;28;19914;-76
2023/04/15 00:35:42;;;;;;;;;;;;;;;12.08;55.77;99588.69;4956823;28;19914;-77
2023/04/15 00:38:33;;;;;;;;;;;;;;;12.00;56.34;99593.97;4955727;28;19922;-76
2023/04/15 00:41:25;;;;;;;;;;;;;;;12.09;55.26;99598.47;4955497;29;19915;-76
2023/04/15 00:44:17;;;;;;;;;;;;;;;12.08;54.94;99589.50;4955795;29;20387;-76
2023/04/15 00:47:10;;;;;;;;;;;;;;;12.21;54.73;99590.19;4956050;28;19919;-76
2023/04/15 00:50:01;;;;;;;;;;;;;;;12.18;54.78;99591.69;4957436;28;19914;-76
2023/04/15 00:52:53;;;;;;;;;;;;;;;12.12;54.36;99584.13;4955595;28;19914;-78
2023/04/15 00:55:45;;;;;;;;;;;;;;;12.04;54.13;99579.66;4955169;28;19914;-79
2023/04/15 00:58:37;;;;;;;;;;;;;;;11.91;55.13;99585.19;4957224;28;19919;-78
2023/04/15 01:01:27;;;;;;;;;;;;;;;11.94;54.65;99589.13;4959666;28;20530;-78
2023/04/15 01:04:19;;;;;;;;;;;;;;;11.82;54.92;99584.56;4958300;28;19918;-78
2023/04/15 01:07:10;;;;;;;;;;;;;;;11.70;54.80;99583.81;4954137;28;19914;-76
2023/04/15 01:10:04;;;;;;;;;;;;;;;11.70;54.93;99584.63;4958921;28;19915;-76
2023/04/15 01:12:56;;;;;;;;;;;;;;;11.61;55.58;99578.53;4955151;28;20374;-76
2023/04/15 01:15:48;;;;;;;;;;;;;;;11.69;55.31;99577.56;4954932;28;19914;-75
2023/04/15 01:18:38;;;;;;;;;;;;;;;11.68;54.97;99578.75;4958131;28;19918;-76
2023/04/15 01:21:30;;;;;;;;;;;;;;;11.63;55.58;99578.97;4954863;29;19918;-75
2023/04/15 01:24:22;;;;;;;;;;;;;;;11.47;55.89;99586.34;4954625;28;20317;-75
2023/04/15 01:27:11;;;;;;;;;;;;;;;11.43;55.93;99580.00;4955207;28;19914;-75
2023/04/15 01:30:03;;;;;;;;;;;;;;;11.47;56.24;99583.63;4954674;29;19916;-75
2023/04/15 01:33:04;;;;;;;;;;;;;;;11.43;56.53;99578.06;4959017;28;19915;-75
2023/04/15 01:35:57;;;;;;;;;;;;;;;11.33;56.44;99581.28;4954719;29;19915;-75
2023/04/15 01:38:49;;;;;;;;;;;;;;;11.06;58.18;99577.47;4954595;29;20386;-75
2023/04/15 01:41:41;;;;;;;;;;;;;;;11.28;57.24;99584.25;4953416;28;19914;-77
2023/04/15 01:44:33;;;;;;;;;;;;;;;11.37;57.03;99581.41;4954548;28;19915;-78
2023/04/15 01:47:25;;;;;;;;;;;;;;;11.44;56.06;99585.09;4954268;28;19914;-75
2023/04/15 01:50:15;;;;;;;;;;;;;;;11.43;56.52;99580.78;4956728;28;19915;-75
2023/04/15 01:53:04;;;;;;;;;;;;;;;11.42;56.23;99578.44;4955066;28;20378;-75
2023/04/15 01:55:56;;;;;;;;;;;;;;;11.23;56.33;99581.78;4954331;29;19915;-75
2023/04/15 01:58:48;;;;;;;;;;;;;;;11.08;56.70;99577.88;4956073;28;20554;-75
2023/04/15 02:01:40;;;;;;;;;;;;;;;11.07;56.29;99578.25;4953963;28;19914;-75
2023/04/15 02:04:32;;;;;;;;;;;;;;;11.20;56.12;99579.78;4957460;28;19914;-75
2023/04/15 02:07:24;;;;;;;;;;;;;;;11.08;56.69;99577.88;4953420;28;19914;-75
2023/04/15 02:10:16;;;;;;;;;;;;;;;11.17;56.10;99583.19;4953117;28;19918;-75
2023/04/15 02:13:08;;;;;;;;;;;;;;;11.19;55.81;99582.84;4954345;28;19914;-75
2023/04/15 02:16:00;;;;;;;;;;;;;;;11.13;55.80;99585.00;4954205;29;20389;-75
2023/04/15 02:18:52;;;;;;;;;;;;;;;10.92;56.62;99587.91;4953303;29;19918;-75
2023/04/15 02:21:43;;;;;;;;;;;;;;;10.98;55.88;99588.47;4955615;28;20313;-75
2023/04/15 02:24:38;;;;;;;;;;;;;;;10.67;56.48;99589.13;4953569;28;19915;-75
2023/04/15 02:27:32;;;;;;;;;;;;;;;10.56;57.27;99588.81;4953445;28;19915;-75
2023/04/15 02:30:24;;;;;;;;;;;;;;;10.52;57.49;99592.53;4953922;29;19914;-76
2023/04/15 02:33:15;;;;;;;;;;;;;;;10.52;58.05;99592.53;4954221;29;20290;-76
2023/04/15 02:36:07;;;;;;;;;;;;;;;10.54;58.03;99584.84;4956399;29;19914;-76
2023/04/15 02:38:59;;;;;;;;;;;;;;;10.50;58.35;99590.19;4954108;28;19918;-78
2023/04/15 02:41:51;;;;;;;;;;;;;;;10.58;57.70;99602.03;4957975;28;19918;-78
2023/04/15 02:44:43;;;;;;;;;;;;;;;10.55;57.83;99598.09;4955693;28;20305;-78
2023/04/15 02:47:35;;;;;;;;;;;;;;;10.57;57.88;99595.03;4953342;28;19915;-79
2023/04/15 02:50:27;;;;;;;;;;;;;;;10.44;57.83;99596.19;4943843;29;20293;-76
2023/04/15 02:53:19;;;;;;;;;;;;;;;10.44;58.01;99598.91;4954761;28;19919;-76
2023/04/15 02:56:11;;;;;;;;;;;;;;;10.41;58.42;99605.03;4973555;23;19914;-76
2023/04/15 02:59:03;;;;;;;;;;;;;;;10.34;58.63;99600.16;4935581;29;20311;-76
2023/04/15 03:01:55;;;;;;;;;;;;;;;10.38;58.12;99601.06;4935424;29;19914;-77
2023/04/15 03:04:47;;;;;;;;;;;;;;;10.42;57.75;99603.88;4936968;29;19914;-76
2023/04/15 03:07:39;;;;;;;;;;;;;;;10.13;58.69;99602.97;4936758;29;19915;-76
2023/04/15 03:10:29;;;;;;;;;;;;;;;9.92;59.25;99610.41;4927172;29;19915;-76
2023/04/15 03:13:21;;;;;;;;;;;;;;;10.01;59.32;99602.94;4939535;29;19915;-76
2023/04/15 03:16:11;;;;;;;;;;;;;;;10.04;58.95;99609.63;4934768;29;19922;-76
2023/04/15 03:19:04;;;;;;;;;;;;;;;9.78;59.76;99615.38;4937414;29;19918;-75
2023/04/15 03:21:56;;;;;;;;;;;;;;;9.78;59.13;99610.72;4923401;29;19915;-76
2023/04/15 03:24:48;;;;;;;;;;;;;;;9.80;59.51;99610.41;4934240;29;19915;-76
2023/04/15 03:27:40;;;;;;;;;;;;;;;9.91;59.18;99619.69;4921069;29;20367;-76
2023/04/15 03:30:32;;;;;;;;;;;;;;;10.00;59.13;99623.09;4927332;29;20299;-76
2023/04/15 03:33:24;;;;;;;;;;;;;;;9.93;59.12;99617.44;4934975;29;19914;-76
2023/04/15 03:36:14;;;;;;;;;;;;;;;9.99;58.77;99618.81;4942995;29;19915;-76
2023/04/15 03:39:06;;;;;;;;;;;;;;;10.11;58.31;99618.78;4923996;29;19923;-75
2023/04/15 03:41:58;;;;;;;;;;;;;;;10.07;58.23;99617.09;4926886;29;19914;-75
2023/04/15 03:44:50;;;;;;;;;;;;;;;10.13;58.38;99616.53;4938489;29;19915;-75
2023/04/15 03:47:42;;;;;;;;;;;;;;;10.05;58.32;99614.72;4935601;29;19915;-76
2023/04/15 03:50:34;;;;;;;;;;;;;;;10.05;58.28;99613.94;4937236;29;19915;-75
2023/04/15 03:53:26;;;;;;;;;;;;;;;9.94;58.53;99610.88;4937527;29;19918;-75
2023/04/15 03:56:18;;;;;;;;;;;;;;;10.04;58.28;99613.16;4937401;29;19915;-76
2023/04/15 03:59:10;;;;;;;;;;;;;;;9.96;58.45;99616.75;4934961;29;19919;-75
2023/04/15 04:02:02;;;;;;;;;;;;;;;9.97;57.89;99621.03;4925442;29;19915;-75
2023/04/15 04:04:54;;;;;;;;;;;;;;;9.66;58.12;99613.41;4936238;29;19915;-76
2023/04/15 04:07:46;;;;;;;;;;;;;;;9.60;57.67;99619.41;4937007;29;19919;-76
2023/04/15 04:10:38;;;;;;;;;;;;;;;9.53;58.79;99625.38;4935742;29;20302;-76
2023/04/15 04:13:30;;;;;;;;;;;;;;;9.65;58.49;99625.38;4936132;29;19915;-76
2023/04/15 04:16:22;;;;;;;;;;;;;;;9.71;58.59;99623.25;4939018;29;20386;-75
2023/04/15 04:19:14;;;;;;;;;;;;;;;9.74;58.56;99628.03;4936700;29;20375;-76
2023/04/15 04:22:06;;;;;;;;;;;;;;;9.73;58.63;99629.16;4930283;29;19919;-76
2023/04/15 04:24:58;;;;;;;;;;;;;;;9.70;58.33;99629.84;4936183;29;19915;-75
2023/04/15 04:27:50;;;;;;;;;;;;;;;9.67;57.95;99625.06;4936069;29;19915;-76
2023/04/15 04:30:42;;;;;;;;;;;;;;;9.55;58.49;99633.19;4935676;29;19915;-76
2023/04/15 04:33:34;;;;;;;;;;;;;;;9.45;58.81;99639.81;4924244;29;19914;-76
2023/04/15 04:36:26;;;;;;;;;;;;;;;9.50;58.26;99639.59;4940505;29;19915;-75
2023/04/15 04:39:18;;;;;;;;;;;;;;;9.48;58.06;99641.88;4938352;29;19919;-75
2023/04/15 04:42:08;;;;;;;;;;;;;;;9.43;58.31;99639.34;4923050;29;19914;-75
2023/04/15 04:45:00;;;;;;;;;;;;;;;9.40;58.57;99638.09;4935562;29;19914;-75
2023/04/15 04:47:52;;;;;;;;;;;;;;;9.41;58.41;99639.69;4937454;29;19914;-76
2023/04/15 04:50:44;;;;;;;;;;;;;;;9.26;58.80;99648.44;4932790;29;19918;-76
2023/04/15 04:53:36;;;;;;;;;;;;;;;9.25;58.90;99641.41;4931535;29;19919;-75
2023/04/15 04:56:28;;;;;;;;;;;;;;;9.27;59.04;99647.31;4935115;29;19915;-76
2023/04/15 04:59:20;;;;;;;;;;;;;;;9.39;58.68;99649.28;4921039;29;20698;-76
2023/04/15 05:02:09;;;;;;;;;;;;;;;9.31;59.40;99658.28;4920274;29;19915;-75
2023/04/15 05:05:01;;;;;;;;;;;;;;;9.30;59.44;99676.47;4917477;29;20379;-76
2023/04/15 05:07:53;;;;;;;;;;;;;;;9.31;59.35;99677.28;4904035;29;19915;-76
2023/04/15 05:10:43;;;;;;;;;;;;;;;9.40;59.89;99672.56;4917177;29;19922;-76
2023/04/15 05:13:32;;;;;;;;;;;;;;;9.48;59.36;99687.19;4938772;29;19914;-75
2023/04/15 05:16:24;;;;;;;;;;;;;;;9.55;59.17;99682.81;4940187;28;19915;-76
2023/04/15 05:19:16;;;;;;;;;;;;;;;9.47;58.98;99685.59;4929715;29;20382;-77
2023/04/15 05:22:08;;;;;;;;;;;;;;;9.62;58.94;99676.84;4934412;29;19918;-77
2023/04/15 05:24:55;;;;;;;;;;;;;;;9.68;59.13;99683.66;4951815;28;19914;-76
2023/04/15 05:27:45;;;;;;;;;;;;;;;9.57;59.39;99680.56;4923094;29;19915;-75
2023/04/15 05:30:37;;;;;;;;;;;;;;;9.59;60.03;99689.19;4934646;29;20394;-76
2023/04/15 05:33:29;;;;;;;;;;;;;;;9.70;59.75;99689.56;4937244;29;19915;-76
2023/04/15 05:36:21;;;;;;;;;;;;;;;9.53;60.80;99689.72;4935277;29;19915;-76
2023/04/15 05:39:13;;;;;;;;;;;;;;;9.66;60.40;99691.31;4926039;29;19915;-76
2023/04/15 05:42:05;;;;;;;;;;;;;;;9.85;60.77;99695.13;4924469;29;19915;-76
2023/04/15 05:44:57;;;;;;;;;;;;;;;10.07;60.34;99699.38;4914242;29;19914;-76
2023/04/15 05:47:49;;;;;;;;;;;;;;;10.19;60.24;99698.63;4932680;29;19923;-76
2023/04/15 05:50:41;;;;;;;;;;;;;;;10.29;60.42;99706.34;4919228;29;19914;-76
2023/04/15 05:53:33;;;;;;;;;;;;;;;10.50;59.77;99714.41;4925904;29;19914;-76
2023/04/15 05:56:25;;;;;;;;;;;;;;;10.66;60.21;99710.69;4925232;29;19915;-76
2023/04/15 05:59:17;;;;;;;;;;;;;;;10.75;58.80;99720.66;4925987;29;19915;-76
2023/04/15 06:02:08;;;;;;;;;;;;;;;10.80;58.63;99710.34;4917022;28;19915;-76
2023/04/15 06:05:00;;;;;;;;;;;;;;;10.96;58.22;99716.69;4931486;29;20370;-75
2023/04/15 06:07:52;;;;;;;;;;;;;;;10.90;58.40;99723.47;4925890;29;19914;-76
2023/04/15 06:10:47;;;;;;;3.63;2.63;;;;;;;11.05;58.19;99717.34;4932695;29;20432;-75
2023/04/15 06:13:36;;;;;;;2.77;1.97;;;;;;;11.17;58.20;99715.72;4935287;29;20054;-75
2023/04/15 06:16:31;;;;;;;5.50;2.13;;;;;;;11.33;57.87;99708.41;4933815;29;20830;-76
2023/04/15 06:19:25;;;;;;;3.53;2.10;;;;;;;11.41;58.07;99702.84;4933538;29;20522;-75
2023/04/15 06:22:17;;;;;;;4.68;2.38;;;;;;;11.88;57.25;99703.03;4932562;29;20534;-76
2023/04/15 06:25:09;;;;;;;2.22;1.88;;;;;;;12.26;55.64;99712.56;4929183;29;20047;-75
2023/04/15 06:28:04;;;;;;;6.05;2.17;;;;;;;12.07;56.48;99701.56;4927440;29;20047;-75
2023/04/15 06:30:59;;;;;;;3.45;2.38;;;;;;;13.09;52.70;99703.25;4934407;29;20411;-77
2023/04/15 06:33:54;;;;;;;3.25;1.85;;;;;;;14.36;49.96;99702.25;4930829;29;20098;-79
2023/04/15 06:36:48;;;;;;;5.30;2.50;;;;;;;14.47;48.94;99706.00;4927455;29;20063;-78
2023/04/15 06:39:43;;;;;;;5.83;2.30;;;;;;;14.40;47.37;99706.66;4928789;29;20299;-77
2023/04/15 06:42:37;;;;;;;4.63;2.10;;;;;;;15.72;45.87;99709.34;4925120;29;20043;-78
2023/04/15 06:45:31;;;;;;;3.60;2.22;;;;;;;17.27;41.83;99714.63;4934841;29;20046;-77
2023/04/15 06:48:26;;;;;;;3.45;1.92;;;;;;;17.90;39.01;99714.13;4936996;29;20054;-76
2023/04/15 06:51:18;;;;;;;4.35;2.15;;;;;;;20.60;35.52;99719.84;4936480;29;20042;-77
2023/04/15 06:54:11;;;;;;;7.47;2.72;;;;;;;22.75;30.36;99716.44;4941150;29;20059;-79
2023/04/15 06:57:05;;;;;;;3.95;2.35;;;;;;;23.07;29.88;99723.41;4920308;29;20071;-79
2023/04/15 07:00:00;;;;;;;3.95;2.08;;;;;;;25.61;26.71;99719.53;4917772;29;20047;-78
2023/04/15 07:02:54;;;;;;;13.43;2.55;;;;;;;26.20;24.79;99727.34;4934895;29;20046;-79
2023/04/15 07:05:46;;;;;;;4.85;2.50;;;;;;;23.80;28.09;99718.41;4938350;29;20058;-80
2023/04/15 07:08:41;;;;;;;3.50;2.03;;;;;;;27.20;24.09;99736.81;4937370;29;20194;-79
2023/04/15 07:11:35;;;;;;;5.13;2.10;;;;;;;28.65;22.32;99738.19;4935596;29;20039;-78
2023/04/15 07:14:30;;;;;;;4.25;1.60;;;;;;;28.31;22.94;99744.72;4924394;29;20468;-79
2023/04/15 07:17:24;;;;;;;5.43;1.70;;;;;;;28.58;22.34;99730.84;4937203;29;20050;-77
2023/04/15 07:20:19;;;;;;;3.53;1.92;;;;;;;28.37;22.01;99742.88;4925372;29;20055;-78
2023/04/15 07:23:13;;;;;;;4.30;1.88;;;;;;;29.69;20.82;99736.09;4931603;29;20047;-78
2023/04/15 07:26:06;;;;;;;3.20;1.30;;;;;;;29.50;21.33;99729.75;4931632;29;20050;-79
2023/04/15 07:29:00;;;;;;;7.10;1.92;;;;;;;27.07;24.30;99726.94;4936366;29;20055;-77
2023/04/15 07:31:55;;;;;;;6.25;1.60;;;;;;;25.86;25.17;99727.16;4924624;29;20055;-78
2023/04/15 07:34:47;;;;;;;9.15;1.80;;;;;;;26.31;24.80;99727.78;4928525;29;20038;-76
2023/04/15 07:37:42;;;;;;;7.70;2.00;;;;;;;28.12;23.48;99720.72;4928726;29;20129;-77
2023/04/15 07:40:36;;;;;;;9.43;2.20;;;;;;;29.54;22.15;99733.16;4931563;29;20419;-78
2023/04/15 07:43:31;;;;;;;2.42;1.58;;;;;;;31.93;18.94;99734.97;4934730;29;20051;-78
2023/04/15 07:46:26;;;;;;;8.63;1.85;;;;;;;33.12;17.70;99736.25;4936118;29;20051;-76
2023/04/15 07:49:21;;;;;;;5.10;1.67;;;;;;;34.42;16.59;99743.47;4932592;29;20047;-77
2023/04/15 07:52:15;;;;;;;10.80;1.88;;;;;;;30.44;20.24;99733.38;4933489;29;21955;-78
2023/04/15 07:55:11;;;;;;;3.85;1.60;;;;;;;31.57;19.47;99747.34;4934907;29;20058;-77
2023/04/15 07:58:06;;;;;;;5.85;1.85;;;;;;;33.39;17.58;99744.25;4931062;29;20046;-76
2023/04/15 08:01:00;;;;;;;2.17;1.05;;;;;;;33.06;17.40;99739.00;4938615;29;20407;-77
2023/04/15 08:03:55;;;;;;;1.80;0.93;;;;;;;34.49;16.29;99743.75;4940704;28;20054;-77
2023/04/15 08:06:47;;;;;;;3.67;1.58;;;;;;;35.32;15.74;99751.16;4936899;29;20050;-77
2023/04/15 08:09:41;;;;;;;5.20;1.35;;;;;;;35.95;14.99;99752.34;4932853;29;20055;-77
2023/04/15 08:12:36;;;;;;;3.60;0.80;;;;;;;37.48;14.10;99758.75;4937325;29;20051;-77
2023/04/15 08:15:31;;;;;;;1.70;0.80;;;;;;;31.40;17.78;99749.81;4937632;28;20407;-77
2023/04/15 08:18:26;;;;;;;1.98;0.80;;;;;;;29.52;20.03;99744.06;4931929;29;20067;-77
2023/04/15 08:21:18;;;;;;;3.20;0.80;;;;;;;30.09;19.64;99736.66;4934224;29;20070;-77
2023/04/15 08:24:13;;;;;;;1.67;1.25;;;;;;;28.29;21.27;99744.41;4939573;28;20047;-77
2023/04/15 08:27:05;;;;;;;;;;;;;;;33.96;15.93;99746.41;4927931;29;20051;-77
2023/04/15 08:29:57;;;;;;;2.28;1.20;;;;;;;37.35;13.95;99766.28;4933465;29;19918;-77
2023/04/15 08:32:49;;;;;;;1.05;0.80;;;;;;;35.01;15.41;99752.81;4934134;29;20070;-76
2023/04/15 08:35:43;;;;;;;3.42;1.00;;;;;;;33.98;16.03;99738.22;4931534;29;20047;-76
2023/04/15 08:38:36;;;;;;;1.70;1.00;;;;;;;34.76;15.23;99739.59;4937538;29;20046;-77
2023/04/15 08:41:35;;;;;;;1.63;0.90;;;;;;;34.70;15.91;99748.03;4936118;29;20692;-76
2023/04/15 08:44:31;;;;;;;3.33;1.00;;;;;;;33.20;16.49;99732.53;4933538;29;20058;-76
2023/04/15 08:47:24;;;;;;;;;;;;;;;30.67;20.28;99738.31;4933856;29;20043;-81
2023/04/15 08:50:17;;;;;;;;;;;;;;;28.29;22.32;99727.63;4936292;29;19922;-79
2023/04/15 08:53:09;;;;;;;;;;;;;;;26.50;24.42;99739.97;4940037;29;19922;-78
2023/04/15 08:56:04;;;;;;;;;;;;;;;25.53;26.27;99729.31;4933341;29;19927;-80
2023/04/15 08:58:54;;;;;;;;;;;;;;;25.40;26.59;99728.47;4979607;23;19922;-81
2023/04/15 09:01:43;;;;;;;;;;;;;;;25.16;27.18;99729.91;4935747;29;20403;-79
2023/04/15 09:04:33;;;;;;;;;;;;;;;25.00;26.88;99730.72;4936544;29;19915;-74
2023/04/15 09:07:25;;;;;;;;;;;;;;;24.91;26.43;99722.22;4902385;29;19923;-74
2023/04/15 09:10:17;;;;;;;;;;;;;;;24.32;25.91;99720.47;4894304;29;19915;-74
2023/04/15 09:13:09;;;;;;;;;;;;;;;23.68;26.50;99724.63;4903125;29;19915;-75
2023/04/15 09:16:02;;;;;;;;;;;;;;;23.39;27.65;99721.59;4890584;29;19919;-74
2023/04/15 09:18:49;;;;;;;;;;;;;;;23.29;27.27;99717.03;4894564;29;19915;-74
2023/04/15 09:21:37;;;;;;;;;;;;;;;23.49;27.49;99717.09;4900887;29;19919;-75
2023/04/15 09:24:34;;;;;;;;;;;;;;;23.76;26.88;99711.38;4900832;29;19915;-74
2023/04/15 09:27:26;;;;;;;;;;;;;;;24.17;26.78;99713.69;4895573;29;19919;-75
2023/04/15 09:30:34;;;;;;;;;;;;;;;24.85;27.55;99718.38;4897696;29;19915;-75
2023/04/15 09:33:54;;;;;;;;;;;;;;;25.47;24.20;99708.78;4886141;29;20375;-75
2023/04/15 09:36:45;;;;;;;;;;;;;;;25.69;25.11;99720.13;4901464;29;19919;-75
2023/04/15 09:39:47;;;;;;;;;;;;;;;25.65;24.34;99716.66;4895742;29;19915;-75
2023/04/15 09:42:55;;;;;;;;;;;;;;;25.84;25.29;99724.06;4904919;29;19920;-76
2023/04/15 09:45:46;;;;;;;;;;;;;;;25.94;24.12;99714.59;4901801;29;19923;-75
2023/04/15 09:48:35;;;;;;;;;;;;;;;25.89;24.07;99710.38;4899304;29;19915;-75
2023/04/15 09:51:34;;;;;;;;;;;;;;;25.92;23.34;99698.31;4893087;29;19916;-75
2023/04/15 09:54:26;;;;;;;;;;;;;;;25.40;23.34;99701.41;4898708;29;19915;-75
2023/04/15 09:57:16;;;;;;;;;;;;;;;25.02;24.25;99706.03;4908374;29;19915;-74
2023/04/15 10:00:09;;;;;;;;;;;;;;;24.32;25.16;99692.69;4907955;29;19927;-75
2023/04/15 10:02:59;;;;;;;;;;;;;;;24.42;24.79;99701.97;4906992;29;19915;-74
2023/04/15 10:05:51;;;;;;;;;;;;;;;24.16;25.92;99692.63;4906925;29;19923;-74
2023/04/15 10:08:44;;;;;;;;;;;;;;;24.40;25.98;99682.94;4892221;29;19915;-75
2023/04/15 10:11:37;;;;;;;;;;;;;;;24.89;24.91;99696.88;4894666;29;19915;-75
2023/04/15 10:14:32;;;;;;;;;;;;;;;24.50;24.01;99684.69;4892655;29;20379;-75
2023/04/15 10:17:34;;;;;;;;;;;;;;;24.50;23.90;99687.47;4889202;29;19923;-76
2023/04/15 10:20:27;;;;;;;;;;;;;;;24.81;23.53;99687.88;4883981;29;19923;-75
2023/04/15 10:23:21;;;;;;;;;;;;;;;25.28;23.14;99674.31;4882919;29;19928;-75
2023/04/15 10:26:13;;;;;;;;;;;;;;;24.49;24.20;99682.34;4912770;29;19914;-76
2023/04/15 10:29:10;;;;;;;;;;;;;;;24.69;24.56;99678.25;4889102;29;19915;-76
2023/04/15 10:31:58;;;;;;;;;;;;;;;25.30;24.51;99677.44;4921800;29;19915;-77
2023/04/15 10:35:03;;;;;;;;;;;;;;;25.32;23.32;99675.00;4893107;29;19923;-76
2023/04/15 10:37:56;;;;;;;;;;;;;;;25.72;23.41;99675.44;4918213;29;20387;-76
2023/04/15 10:40:50;;;;;;;;;;;;;;;25.61;22.83;99668.63;4895830;29;19927;-76
2023/04/15 10:43:53;;;;;;;;;;;;;;;25.47;23.65;99678.16;4893048;29;19915;-77
2023/04/15 10:46:50;;;;;;;;;;;;;;;25.69;23.40;99670.00;4911231;29;19915;-78
2023/04/15 10:49:57;;;;;;;;;;;;;;;25.74;22.08;99677.81;4897272;29;19919;-79
2023/04/15 10:52:51;;;;;;;;;;;;;;;25.60;21.49;99673.41;4903661;29;19923;-78
2023/04/15 10:55:48;;;;;;;;;;;;;;;25.31;22.46;99667.88;4889404;29;19915;-77
2023/04/15 10:58:47;;;;;;;;;;;;;;;25.62;23.61;99665.41;4905657;29;19919;-78
2023/04/15 11:02:12;;;;;;;;;;;;;;;25.71;22.53;99670.31;4904646;29;19927;-78
2023/04/15 11:05:02;;;;;;;;;;;;;;;24.82;22.12;99656.06;4893506;29;19919;-78
2023/04/15 11:07:58;;;;;;;;;;;;;;;24.71;23.23;99659.13;4894268;29;20287;-78
2023/04/15 11:10:58;;;;;;;;;;;;;;;25.01;22.63;99655.19;4915716;29;19915;-78
2023/04/15 11:13:56;;;;;;;;;;;;;;;25.37;23.73;99648.63;4907946;29;19916;-78
2023/04/15 11:16:55;;;;;;;;;;;;;;;25.41;23.93;99654.88;4901390;29;19919;-79
2023/04/15 11:19:50;;;;;;;;;;;;;;;25.70;23.42;99652.81;4901061;29;19915;-78
2023/04/15 11:22:50;;;;;;;;;;;;;;;25.62;24.26;99653.50;4893332;29;19919;-77
2023/04/15 11:25:40;;;;;;;;;;;;;;;25.71;23.71;99657.19;4916048;29;19915;-79
2023/04/15 11:28:32;;;;;;;;;;;;;;;25.96;23.04;99659.19;4901857;29;20006;-79
2023/04/15 11:31:29;;;;;;;;;;;;;;;26.40;22.12;99657.44;4915064;29;19923;-78
2023/04/15 11:34:30;;;;;;;;;;;;;;;26.68;21.57;99655.69;4888366;29;20383;-78
2023/04/15 11:37:30;;;;;;;;;;;;;;;25.68;22.02;99643.38;4883926;29;19919;-78
2023/04/15 11:40:32;;;;;;;;;;;;;;;31.64;16.87;99659.81;4911082;29;20010;-78
2023/04/15 11:43:24;;;;;;;;;;;;;;;32.41;15.99;99650.28;4901032;29;19916;-78
2023/04/15 11:46:15;;;;;;;;;;;;;;;33.27;15.83;99658.03;4897304;29;19916;-79
2023/04/15 11:49:18;;;;;;;;;;;;;;;33.83;14.38;99660.09;4913416;29;19915;-79
2023/04/15 11:52:10;;;;;;;;;;;;;;;37.60;11.99;99665.81;4900361;29;19923;-77
2023/04/15 11:55:10;;;;;;;;;;;;;;;34.97;13.89;99670.31;4899180;29;19931;-77
2023/04/15 11:58:12;;;;;;;;;;;;;;;34.19;14.09;99655.00;4900601;29;19915;-77
2023/04/15 12:01:02;;;;;;;;;;;;;;;31.88;16.77;99651.25;4915836;29;20406;-77
2023/04/15 12:03:51;;;;;;;;;;;;;;;29.59;18.64;99645.66;4897688;29;19919;-77
2023/04/15 12:06:38;;;;;;;;;;;;;;;35.86;13.47;99656.34;4903911;29;20468;-77
2023/04/15 12:09:39;;;;;;;;;;;;;;;31.55;16.27;99653.47;4902329;29;19915;-77
2023/04/15 12:12:32;;;;;;;;;;;;;;;31.70;16.92;99648.66;4899409;29;19915;-77
2023/04/15 12:15:22;;;;;;;;;;;;;;;30.18;17.68;99646.06;4904820;29;19915;-77
2023/04/15 12:18:37;;;;;;;;;;;;;;;34.50;14.50;99654.16;4891800;29;19915;-77
2023/04/15 12:21:37;;;;;;;;;;;;;;;33.62;14.89;99650.19;4903573;29;19919;-77
2023/04/15 12:24:56;;;;;;;;;;;;;;;31.83;15.56;99647.09;4898838;29;19916;-76
2023/04/15 12:28:06;;;;;;;;;;;;;;;30.87;17.14;99639.44;4900034;29;20343;-76
2023/04/15 12:30:54;;;;;;;;;;;;;;;34.44;13.67;99651.31;4905266;29;19916;-76
2023/04/15 12:33:48;;;;;;;;;;;;;;;31.08;17.67;99643.97;4901128;29;19919;-75
2023/04/15 12:36:47;;;;;;;;;;;;;;;33.34;15.57;99646.31;4909534;29;19915;-74
2023/04/15 12:39:56;;;;;;;;;;;;;;;33.67;14.68;99652.28;4903226;29;19915;-77
2023/04/15 12:42:56;;;;;;;;;;;;;;;35.35;12.75;99651.97;4901832;29;19920;-76
2023/04/15 12:45:52;;;;;;;;;;;;;;;36.67;11.97;99651.63;4884805;29;19924;-75
2023/04/15 12:48:56;;;;;;;;;;;;;;;28.77;17.14;99642.91;4894937;29;19915;-75
2023/04/15 12:51:46;;;;;;;;;;;;;;;31.30;16.93;99654.81;4895443;29;19915;-74
2023/04/15 12:54:41;;;;;;;;;;;;;;;34.55;14.73;99653.41;4895798;29;19915;-77
2023/04/15 12:57:31;;;;;;;;;;;;;;;29.10;18.71;99647.91;4854201;29;1442149;-75
2023/04/15 13:00:22;;;;;;;;;;;;;;;31.24;17.54;99646.28;4885991;29;19915;-75
2023/04/15 13:03:11;;;;;;;;;;;;;;;28.55;20.85;99642.22;4898470;29;20325;-75
2023/04/15 13:06:12;;;;;;;5.15;1.40;;;;;;;25.37;23.87;99638.28;4899493;29;20415;-75
2023/04/15 13:09:16;;;;;;;4.45;1.90;;;;;;;26.58;22.08;99642.88;4883771;29;20052;-76
2023/04/15 13:12:10;;;;;;;3.45;1.50;;;;;;;24.10;25.16;99647.13;4914948;29;20526;-75
2023/04/15 13:15:24;;;;;;;3.57;1.93;;;;;;;21.53;29.31;99641.06;4878646;29;20047;-77
2023/04/15 13:18:30;;;;;;;;;;;;;;;;;;;;;
2023/04/15 13:21:23;;;;;;;3.38;2.03;;;;;;;22.56;27.43;99648.63;4918369;29;20055;-76
2023/04/15 13:24:24;;;;;;;2.47;1.38;;;;;;;24.67;24.16;99643.75;4900862;29;20056;-77
2023/04/15 13:27:21;;;;;;;1.75;1.25;;;;;;;25.82;23.11;99648.50;4885270;29;20051;-76
2023/04/15 13:30:21;;;;;;;1.95;1.13;;;;;;;29.59;18.89;99642.84;4889545;29;20047;-76
2023/04/15 13:33:23;;;;;;;2.85;1.10;;;;;;;30.35;18.05;99638.81;4898406;29;20428;-76
2023/04/15 13:36:15;;;;;;;2.33;0.80;;;;;;;27.80;20.77;99638.09;4893473;29;20059;-76
2023/04/15 13:39:09;;;;;;;3.80;2.00;;;;;;;25.16;24.01;99627.75;4902871;29;20435;-77
2023/04/15 13:42:03;;;;;;;16.83;6.95;;;;;;;26.30;23.10;99642.63;4893263;29;20051;-76
2023/04/15 13:44:54;;;;;;;2.10;1.60;;;;;;;21.51;28.95;99635.16;4894177;29;20516;-76
2023/04/15 13:48:03;;;;;;;5.07;1.33;;;;;;;20.57;30.42;99626.75;4894965;29;20527;-76
2023/04/15 13:51:02;;;;;;;7.68;3.40;;;;;;;25.13;23.83;99626.63;4882983;29;20071;-76
2023/04/15 13:53:57;;;;;;;7.13;1.48;;;;;;;22.50;26.70;99627.38;4906640;29;20443;-77
2023/04/15 13:56:48;;;;;;;4.40;1.00;;;;;;;24.10;24.26;99628.47;4908010;29;20055;-77
2023/04/15 13:59:57;;;;;;;1.45;0.80;;;;;;;24.95;23.14;99631.91;4882814;29;20063;-77
2023/04/15 14:02:51;;;;;;;1.75;1.02;;;;;;;23.71;23.95;99618.28;4865611;29;20543;-77
2023/04/15 14:06:00;;;;;;;0.70;0.60;;;;;;;23.76;24.65;99631.66;4877809;29;20055;-78
2023/04/15 14:08:58;;;;;;;5.40;1.27;;;;;;;21.81;25.95;99631.59;4898948;29;20539;-76
2023/04/15 14:11:53;;;;;;;3.87;1.10;;;;;;;21.92;27.90;99643.28;4901838;29;20941;-78
2023/04/15 14:15:09;;;;;;;4.88;1.20;;;;;;;22.10;28.19;99641.06;4898891;29;20535;-76
2023/04/15 14:18:15;;;;;;;5.82;1.30;;;;;;;21.60;28.16;99637.41;4879766;29;20051;-76
2023/04/15 14:21:28;;;;;;;6.20;1.15;;;;;;;19.96;31.29;99635.44;4890104;29;20052;-75
2023/04/15 14:24:34;;;;;;;2.05;1.02;;;;;;;20.33;30.11;99640.34;4884705;29;20055;-76
2023/04/15 14:27:28;;;;;;;1.65;0.85;;;;;;;20.64;29.49;99640.47;4908132;29;20169;-76
2023/04/15 14:30:21;;;;;;;3.10;1.05;;;;;;;19.67;31.29;99647.06;4908394;29;20232;-76
2023/04/15 14:33:37;;;;;;;17.30;1.42;;;;;;;21.05;29.65;99649.50;4887258;29;20478;-77
2023/04/15 14:36:42;;;;;;;2.33;0.90;;;;;;;20.10;30.37;99648.38;4888552;29;20059;-79
2023/04/15 14:39:39;;;;;;;3.70;0.55;;;;;;;20.40;29.63;99645.03;4898210;29;20048;-77
2023/04/15 14:42:46;;;;;;;2.85;0.68;;;;;;;20.59;30.11;99649.19;4881582;29;20055;-76